Terminal Aerodrome Forecast
Issued by NWS

Home | Current Version | Previous Version | Text Only | Print | Product List | Glossary On
Versions: 1 2 3 4 5 6 7 8 9 10 11 12 13
000
FTAK31 PAJN 120541
TAFAPG
TAF
PAPG 120541Z 1206/1306 VRB04KT P6SM BKN150 WS020/15035KT
     FM121100 10004KT 6SM -RA SCT030 OVC050 WS020/15035KT
      TEMPO 1211/1215 VRB03KT 4SM -RA BR BKN015 OVC030
     FM121600 22005KT 5SM -RA BR BKN015 OVC025
      AMD LTD TO CLD VIS AND WIND 1206/1215=

USA.gov is the U.S. government's official web portal to all federal, state and local government web resources and services.